createdAt,value
2023-01-07T00:00:25.793Z,69.04
2023-01-07T00:01:30.961Z,68.63
2023-01-07T00:02:32.951Z,68.71
2023-01-07T00:03:35.729Z,69.23
2023-01-07T00:04:38.598Z,69.69
2023-01-07T00:05:40.605Z,70.34
2023-01-07T00:06:44.769Z,69.84
2023-01-07T00:07:46.827Z,69.52
2023-01-07T00:08:50.838Z,69.29
2023-01-07T00:09:53.055Z,68.83
2023-01-07T00:10:55.095Z,69.08
2023-01-07T00:11:57.702Z,68.94
2023-01-07T00:13:00.025Z,69.79
2023-01-07T00:14:04.854Z,68.96
2023-01-07T00:15:09.136Z,69.22
2023-01-07T00:16:14.659Z,69.93
2023-01-07T00:17:17.943Z,69.83
2023-01-07T00:18:20.795Z,69.54
2023-01-07T00:19:23.729Z,69.98
2023-01-07T00:20:26.028Z,70.34
2023-01-07T00:21:29.560Z,70.63
2023-01-07T00:22:31.720Z,70.29
2023-01-07T00:23:36.107Z,70.39
2023-01-07T00:24:38.357Z,70.39
2023-01-07T00:25:40.324Z,70.58
2023-01-07T00:26:42.660Z,70.03
2023-01-07T00:27:44.938Z,69.52
2023-01-07T00:28:50.147Z,69.50
2023-01-07T00:29:52.303Z,69.76
2023-01-07T00:31:03.399Z,69.68
2023-01-07T00:32:06.165Z,69.28
2023-01-07T00:33:11.049Z,69.38
2023-01-07T00:34:14.157Z,68.35
2023-01-07T00:35:25.103Z,68.49
2023-01-07T00:36:33.285Z,69.42
2023-01-07T00:37:51.251Z,70.26
2023-01-07T00:38:58.398Z,70.28
2023-01-07T00:40:06.349Z,69.76
2023-01-07T00:41:09.621Z,69.47
2023-01-07T00:42:30.557Z,68.96
2023-01-07T00:43:33.638Z,70.02
2023-01-07T00:44:37.299Z,68.94
2023-01-07T00:45:39.359Z,69.37
2023-01-07T00:46:42.580Z,70.16
2023-01-07T00:47:44.837Z,71.08
2023-01-07T00:48:47.616Z,69.77
2023-01-07T00:49:50.165Z,69.37
2023-01-07T00:50:54.588Z,71.02
2023-01-07T00:51:56.758Z,71.40
2023-01-07T00:53:00.756Z,70.87
2023-01-07T00:54:03.413Z,70.56
2023-01-07T00:55:06.835Z,69.43
2023-01-07T00:56:11.339Z,69.19
2023-01-07T00:57:17.397Z,68.92
2023-01-07T00:58:22.512Z,68.65
2023-01-07T00:59:24.937Z,68.56
2023-01-07T01:00:27.809Z,67.58
2023-01-07T01:01:32.099Z,67.28
2023-01-07T01:02:35.790Z,67.62
2023-01-07T01:03:39.203Z,67.46
2023-01-07T01:04:41.349Z,67.46
2023-01-07T01:05:43.388Z,68.07
2023-01-07T01:06:46.071Z,68.46
2023-01-07T01:07:48.719Z,68.51
2023-01-07T01:08:51.237Z,68.53
2023-01-07T01:09:53.878Z,68.45
2023-01-07T01:10:56.312Z,69.87
2023-01-07T01:11:58.209Z,69.65
2023-01-07T01:13:02.219Z,68.72
2023-01-07T01:14:04.902Z,68.72
2023-01-07T01:15:11.831Z,68.79
2023-01-07T01:16:17.490Z,69.60
2023-01-07T01:17:20.692Z,69.27
2023-01-07T01:18:22.969Z,69.03
2023-01-07T01:19:25.046Z,68.59
2023-01-07T01:20:27.431Z,68.51
2023-01-07T01:21:31.172Z,69.02
2023-01-07T01:22:33.714Z,67.94
2023-01-07T01:23:36.120Z,68.05
2023-01-07T01:24:38.215Z,68.56
2023-01-07T01:25:40.247Z,69.16
2023-01-07T01:26:42.772Z,69.13
2023-01-07T01:27:44.923Z,70.29
2023-01-07T01:28:47.204Z,71.05
2023-01-07T01:29:49.845Z,72.02
2023-01-07T01:30:55.862Z,73.33
2023-01-07T01:32:00.584Z,73.33
2023-01-07T01:33:03.616Z,74.11
2023-01-07T01:34:06.132Z,74.12
2023-01-07T01:35:09.588Z,74.26
2023-01-07T01:36:12.950Z,74.10
2023-01-07T01:37:16.833Z,74.83
2023-01-07T01:38:19.631Z,74.57
2023-01-07T01:39:23.506Z,74.84
2023-01-07T01:40:28.946Z,75.00
2023-01-07T01:41:32.211Z,74.24
2023-01-07T01:42:36.026Z,74.83
2023-01-07T01:43:41.090Z,74.21
2023-01-07T01:44:52.599Z,74.64
2023-01-07T01:46:00.476Z,75.90
2023-01-07T01:47:09.290Z,75.65
2023-01-07T01:48:11.969Z,71.94
2023-01-07T01:49:23.691Z,71.79
2023-01-07T01:50:35.550Z,72.86
2023-01-07T01:51:42.491Z,73.46
2023-01-07T01:52:57.439Z,72.52
2023-01-07T01:54:03.576Z,74.15
2023-01-07T01:55:09.522Z,74.98
2023-01-07T01:56:16.247Z,75.77
2023-01-07T01:57:21.198Z,76.28
2023-01-07T01:58:33.472Z,75.98
2023-01-07T01:59:40.010Z,75.62
2023-01-07T02:00:44.462Z,75.69
2023-01-07T02:01:47.306Z,73.28
2023-01-07T02:02:54.114Z,72.47
2023-01-07T02:03:57.075Z,72.41
2023-01-07T02:05:00.593Z,73.06
2023-01-07T02:06:03.669Z,72.49
2023-01-07T02:07:12.258Z,73.11
2023-01-07T02:08:18.847Z,73.45
2023-01-07T02:09:21.026Z,72.06
2023-01-07T02:10:25.136Z,70.83
2023-01-07T02:11:37.111Z,70.85
2023-01-07T02:13:02.706Z,69.20
2023-01-07T02:14:24.460Z,69.28
2023-01-07T02:15:52.985Z,70.40
2023-01-07T02:17:11.075Z,69.16
2023-01-07T02:18:36.744Z,69.31
2023-01-07T02:20:11.342Z,71.43
2023-01-07T02:21:39.121Z,71.46
2023-01-07T02:22:50.982Z,73.42
2023-01-07T02:24:16.812Z,71.22
2023-01-07T02:25:49.979Z,71.32
2023-01-07T02:26:55.863Z,72.03
2023-01-07T02:28:17.167Z,75.23
2023-01-07T02:29:31.960Z,71.71
2023-01-07T02:30:46.844Z,71.79
2023-01-07T02:31:58.840Z,71.75
2023-01-07T02:33:21.693Z,71.91
2023-01-07T02:34:43.072Z,72.15
2023-01-07T02:36:07.415Z,72.36
2023-01-07T02:37:20.603Z,71.67
2023-01-07T02:38:41.503Z,71.42
2023-01-07T02:41:03.970Z,71.59
2023-01-07T02:42:24.826Z,71.09
2023-01-07T02:43:33.907Z,71.83
2023-01-07T02:44:43.446Z,71.52
2023-01-07T02:45:51.763Z,72.23
2023-01-07T02:47:10.393Z,72.90
2023-01-07T02:48:15.253Z,72.71
2023-01-07T02:49:18.356Z,71.78
2023-01-07T02:50:22.001Z,71.87
2023-01-07T02:51:34.524Z,72.41
2023-01-07T02:52:37.463Z,72.49
2023-01-07T02:53:43.025Z,71.73
2023-01-07T02:54:58.015Z,71.46
2023-01-07T02:56:16.022Z,72.12
2023-01-07T02:57:31.162Z,71.92
2023-01-07T02:58:52.370Z,73.04
2023-01-07T03:00:18.265Z,72.54
2023-01-07T03:01:55.015Z,72.29
2023-01-07T03:03:21.964Z,72.10
2023-01-07T03:05:01.342Z,69.75
2023-01-07T03:06:26.920Z,68.57
2023-01-07T03:07:48.054Z,69.77
2023-01-07T03:09:12.329Z,71.04
2023-01-07T03:10:27.784Z,71.69
2023-01-07T03:11:54.826Z,70.87
2023-01-07T03:13:00.696Z,71.91
2023-01-07T03:14:06.908Z,71.49
2023-01-07T03:15:15.940Z,72.08
2023-01-07T03:16:21.908Z,72.37
2023-01-07T03:17:28.020Z,72.75
2023-01-07T03:18:36.553Z,74.21
2023-01-07T03:19:42.381Z,75.00
2023-01-07T03:20:49.163Z,74.10
2023-01-07T03:21:54.015Z,74.11
2023-01-07T03:22:57.847Z,73.81
2023-01-07T03:24:01.750Z,71.67
2023-01-07T03:25:07.284Z,71.07
2023-01-07T03:26:13.984Z,71.85
2023-01-07T03:27:20.292Z,71.23
2023-01-07T03:28:27.305Z,71.75
2023-01-07T03:29:32.622Z,70.96
2023-01-07T03:30:38.081Z,70.44
2023-01-07T03:31:43.846Z,69.45
2023-01-07T03:32:56.283Z,69.24
2023-01-07T03:34:10.907Z,69.67
2023-01-07T03:35:13.596Z,69.42
2023-01-07T03:36:21.503Z,69.59
2023-01-07T03:37:26.322Z,70.44
2023-01-07T03:38:30.285Z,70.59
2023-01-07T03:39:38.958Z,72.70
2023-01-07T03:40:41.845Z,71.95
2023-01-07T03:42:03.156Z,72.15
2023-01-07T03:43:14.631Z,71.79
2023-01-07T03:44:18.606Z,72.51
2023-01-07T03:45:24.997Z,72.76
2023-01-07T03:46:29.175Z,70.97
2023-01-07T03:47:31.697Z,70.93
2023-01-07T03:48:33.820Z,71.53
2023-01-07T03:49:37.045Z,72.11
2023-01-07T03:50:39.658Z,71.82
2023-01-07T03:51:42.078Z,72.84
2023-01-07T03:52:45.300Z,73.35
2023-01-07T03:53:47.568Z,72.39
2023-01-07T03:54:49.798Z,72.83
2023-01-07T03:55:52.977Z,73.47
2023-01-07T03:56:55.194Z,73.36
2023-01-07T03:57:57.446Z,71.21
2023-01-07T03:59:00.392Z,70.85
2023-01-07T04:00:06.649Z,71.37
2023-01-07T04:01:10.811Z,72.34
2023-01-07T04:02:13.203Z,73.01
2023-01-07T04:03:15.533Z,72.64
2023-01-07T04:04:20.017Z,71.40
2023-01-07T04:05:23.065Z,70.30
2023-01-07T04:06:25.735Z,71.82
2023-01-07T04:07:29.028Z,72.26
2023-01-07T04:08:32.329Z,70.32
2023-01-07T04:09:34.540Z,70.89
2023-01-07T04:10:36.663Z,70.18
2023-01-07T04:11:39.184Z,70.25
2023-01-07T04:12:41.911Z,72.06
2023-01-07T04:13:46.176Z,71.87
2023-01-07T04:14:48.296Z,73.43
2023-01-07T04:15:50.275Z,73.42
2023-01-07T04:16:53.170Z,72.90
2023-01-07T04:17:55.201Z,71.40
2023-01-07T04:18:57.892Z,71.61
2023-01-07T04:20:00.653Z,71.98
2023-01-07T04:21:04.308Z,72.14
2023-01-07T04:22:09.287Z,73.07
2023-01-07T04:23:11.636Z,73.00
2023-01-07T04:24:14.134Z,71.92
2023-01-07T04:25:17.390Z,73.00
2023-01-07T04:26:20.858Z,73.00
2023-01-07T04:27:23.353Z,73.83
2023-01-07T04:28:25.641Z,71.62
2023-01-07T04:29:28.308Z,70.31
2023-01-07T04:30:32.662Z,71.81
2023-01-07T04:31:35.310Z,71.74
2023-01-07T04:32:40.264Z,72.68
2023-01-07T04:33:43.593Z,72.35
2023-01-07T04:34:46.063Z,72.30
2023-01-07T04:35:48.136Z,71.39
2023-01-07T04:36:51.516Z,70.42
2023-01-07T04:37:54.186Z,70.32
2023-01-07T04:38:56.299Z,70.94
2023-01-07T04:39:58.192Z,71.58
2023-01-07T04:41:00.860Z,70.78
2023-01-07T04:42:02.902Z,71.66
2023-01-07T04:43:05.545Z,71.22
2023-01-07T04:44:08.082Z,71.02
2023-01-07T04:45:11.288Z,70.34
2023-01-07T04:46:14.120Z,69.71
2023-01-07T04:47:16.181Z,69.82
2023-01-07T04:48:18.566Z,70.90
2023-01-07T04:49:20.795Z,69.67
2023-01-07T04:50:24.533Z,68.89
2023-01-07T04:51:27.092Z,69.60
2023-01-07T04:52:29.291Z,71.06
2023-01-07T04:53:31.614Z,70.23
2023-01-07T04:54:35.037Z,70.28
2023-01-07T04:55:38.400Z,70.32
2023-01-07T04:56:41.719Z,70.32
2023-01-07T04:57:44.082Z,71.72
2023-01-07T04:58:48.114Z,73.23
2023-01-07T04:59:50.793Z,72.63
2023-01-07T05:00:54.844Z,72.63
2023-01-07T05:01:57.795Z,73.17
2023-01-07T05:03:01.400Z,73.10
2023-01-07T05:04:03.975Z,72.68
2023-01-07T05:05:08.236Z,71.66
2023-01-07T05:06:11.004Z,71.66
2023-01-07T05:07:13.999Z,72.17
2023-01-07T05:08:16.634Z,72.08
2023-01-07T05:09:20.576Z,72.14
2023-01-07T05:10:22.959Z,71.36
2023-01-07T05:11:26.474Z,70.75
2023-01-07T05:12:34.960Z,70.84
2023-01-07T05:13:37.711Z,70.08
2023-01-07T05:14:40.214Z,69.24
2023-01-07T05:15:42.265Z,69.80
2023-01-07T05:16:46.406Z,69.90
2023-01-07T05:17:48.532Z,70.48
2023-01-07T05:18:51.365Z,71.24
2023-01-07T05:19:54.182Z,71.73
2023-01-07T05:20:56.604Z,71.06
2023-01-07T05:22:00.636Z,71.42
2023-01-07T05:23:05.163Z,68.63
2023-01-07T05:24:08.848Z,71.55
2023-01-07T05:25:11.719Z,71.55
2023-01-07T05:26:14.889Z,71.61
2023-01-07T05:27:17.590Z,72.06
2023-01-07T05:28:19.946Z,71.46
2023-01-07T05:29:24.311Z,71.73
2023-01-07T05:30:27.382Z,72.90
2023-01-07T05:31:29.997Z,72.78
2023-01-07T05:32:32.112Z,72.52
2023-01-07T05:33:34.337Z,72.70
2023-01-07T05:34:38.268Z,72.62
2023-01-07T05:35:40.536Z,71.77
2023-01-07T05:36:43.055Z,71.77
2023-01-07T05:37:45.991Z,71.46
2023-01-07T05:38:48.473Z,70.90
2023-01-07T05:39:50.583Z,70.54
2023-01-07T05:40:54.189Z,70.28
2023-01-07T05:41:58.956Z,68.23
2023-01-07T05:43:01.410Z,68.06
2023-01-07T05:44:05.101Z,69.23
2023-01-07T05:45:08.844Z,68.62
2023-01-07T05:46:11.423Z,69.16
2023-01-07T05:47:13.847Z,70.38
2023-01-07T05:48:15.833Z,69.77
2023-01-07T05:49:17.873Z,67.78
2023-01-07T05:50:19.976Z,69.42
2023-01-07T05:51:22.403Z,70.05
2023-01-07T05:52:25.387Z,70.42
2023-01-07T05:53:27.601Z,69.23
2023-01-07T05:54:29.543Z,70.83
2023-01-07T05:55:31.664Z,71.76
2023-01-07T05:56:33.949Z,71.23
2023-01-07T05:57:36.150Z,72.83
2023-01-07T05:58:38.249Z,70.81
2023-01-07T05:59:40.445Z,70.14
2023-01-07T06:00:43.105Z,70.24
2023-01-07T06:01:47.492Z,72.82
2023-01-07T06:02:49.875Z,72.85
2023-01-07T06:03:52.029Z,72.47
2023-01-07T06:04:54.124Z,72.35
2023-01-07T06:05:56.185Z,72.70
2023-01-07T06:06:58.270Z,68.78
2023-01-07T06:08:00.199Z,69.23
2023-01-07T06:09:02.650Z,69.26
2023-01-07T06:10:06.788Z,70.69
2023-01-07T06:11:09.250Z,71.44
2023-01-07T06:12:11.416Z,70.70
2023-01-07T06:13:13.721Z,71.99
2023-01-07T06:14:16.407Z,72.55
2023-01-07T06:15:18.538Z,70.14
2023-01-07T06:16:20.655Z,70.19
2023-01-07T06:17:23.874Z,69.55
2023-01-07T06:18:26.376Z,68.96
2023-01-07T06:19:28.371Z,68.86
2023-01-07T06:20:32.363Z,68.54
2023-01-07T06:21:34.983Z,70.98
2023-01-07T06:22:37.480Z,72.03
2023-01-07T06:23:39.790Z,73.98
2023-01-07T06:24:41.885Z,73.24
2023-01-07T06:25:43.804Z,72.04
2023-01-07T06:26:45.856Z,72.37
2023-01-07T06:27:47.771Z,72.70
2023-01-07T06:28:51.860Z,70.70
2023-01-07T06:29:54.000Z,70.27
2023-01-07T06:30:56.647Z,70.59
2023-01-07T06:31:59.124Z,71.94
2023-01-07T06:33:01.255Z,72.15
2023-01-07T06:34:03.701Z,71.67
2023-01-07T06:35:08.532Z,70.89
2023-01-07T06:36:11.396Z,71.08
2023-01-07T06:37:15.487Z,71.20
2023-01-07T06:38:17.863Z,70.86
2023-01-07T06:39:19.910Z,69.72
2023-01-07T06:40:22.418Z,70.11
2023-01-07T06:41:24.642Z,70.64
2023-01-07T06:42:27.490Z,69.10
2023-01-07T06:43:30.225Z,69.23
2023-01-07T06:44:34.367Z,70.11
2023-01-07T06:45:41.280Z,70.73
2023-01-07T06:46:42.545Z,71.23
2023-01-07T06:47:45.223Z,71.40
2023-01-07T06:48:47.248Z,71.75
2023-01-07T06:49:49.230Z,70.56
2023-01-07T06:50:52.546Z,70.35
2023-01-07T06:51:54.706Z,69.48
2023-01-07T06:52:56.951Z,70.85
2023-01-07T06:53:59.429Z,70.04
2023-01-07T06:55:01.857Z,70.21
2023-01-07T06:56:04.686Z,70.12
2023-01-07T06:57:06.691Z,70.12
2023-01-07T06:58:08.849Z,69.41
2023-01-07T06:59:10.955Z,70.52
2023-01-07T07:00:14.623Z,70.52
2023-01-07T07:01:16.986Z,70.52
2023-01-07T07:02:24.523Z,70.50
2023-01-07T07:03:27.134Z,70.33
2023-01-07T07:04:29.353Z,69.16
2023-01-07T07:05:31.856Z,69.48
2023-01-07T07:06:34.078Z,69.64
2023-01-07T07:07:36.749Z,69.56
2023-01-07T07:08:38.649Z,66.65
2023-01-07T07:09:40.599Z,64.81
2023-01-07T07:10:42.704Z,63.47
2023-01-07T07:11:44.958Z,62.83
2023-01-07T07:12:46.967Z,62.96
2023-01-07T07:13:49.492Z,62.72
2023-01-07T07:14:51.874Z,63.19
2023-01-07T07:15:54.170Z,64.18
2023-01-07T07:16:57.451Z,64.72
2023-01-07T07:17:59.661Z,64.75
2023-01-07T07:19:01.597Z,65.88
2023-01-07T07:20:04.392Z,65.05
2023-01-07T07:21:06.720Z,64.47
2023-01-07T07:22:08.830Z,65.10
2023-01-07T07:23:11.449Z,64.98
2023-01-07T07:24:13.643Z,65.47
2023-01-07T07:25:16.372Z,65.47
2023-01-07T07:26:18.749Z,65.92
2023-01-07T07:27:22.890Z,65.58
2023-01-07T07:28:25.112Z,66.33
2023-01-07T07:29:27.029Z,65.88
2023-01-07T07:30:45.524Z,65.21
2023-01-07T07:31:33.697Z,65.21
2023-01-07T07:32:35.989Z,65.53
2023-01-07T07:33:38.299Z,65.48
2023-01-07T07:34:41.560Z,65.92
2023-01-07T07:35:45.557Z,65.10
2023-01-07T07:36:47.798Z,65.50
2023-01-07T07:37:50.139Z,65.69
2023-01-07T07:38:52.606Z,65.55
2023-01-07T07:39:54.591Z,65.57
2023-01-07T07:40:56.510Z,65.16
2023-01-07T07:42:00.826Z,65.53
2023-01-07T07:43:11.821Z,64.94
2023-01-07T07:44:09.127Z,65.16
2023-01-07T07:45:11.388Z,65.45
2023-01-07T07:46:14.504Z,65.88
2023-01-07T07:47:17.775Z,65.48
2023-01-07T07:48:19.931Z,65.69
2023-01-07T07:49:22.474Z,65.68
2023-01-07T07:50:24.675Z,66.16
2023-01-07T07:51:26.492Z,66.34
2023-01-07T07:52:28.305Z,66.37
2023-01-07T07:53:30.619Z,67.16
2023-01-07T07:54:33.108Z,67.12
2023-01-07T07:55:41.089Z,66.85
2023-01-07T07:56:44.471Z,66.78
2023-01-07T07:57:47.653Z,66.85
2023-01-07T07:58:49.986Z,66.80
2023-01-07T07:59:51.923Z,67.39
2023-01-07T08:00:53.983Z,66.92
2023-01-07T08:01:56.575Z,66.71
2023-01-07T08:02:59.865Z,66.44
2023-01-07T08:04:01.968Z,66.49
2023-01-07T08:05:04.532Z,66.18
2023-01-07T08:06:07.281Z,66.26
2023-01-07T08:07:11.189Z,66.45
2023-01-07T08:08:14.705Z,66.37
2023-01-07T08:09:16.904Z,66.55
2023-01-07T08:10:20.999Z,66.96
2023-01-07T08:11:23.296Z,66.34
2023-01-07T08:12:25.302Z,66.35
2023-01-07T08:13:27.352Z,66.85
2023-01-07T08:14:29.619Z,66.94
2023-01-07T08:15:31.826Z,66.95
2023-01-07T08:16:34.564Z,66.83
2023-01-07T08:17:37.677Z,66.58
2023-01-07T08:18:40.400Z,66.18
2023-01-07T08:19:42.410Z,65.82
2023-01-07T08:20:45.131Z,65.84
2023-01-07T08:21:49.706Z,66.00
2023-01-07T08:22:51.872Z,66.18
2023-01-07T08:23:53.905Z,66.13
2023-01-07T08:24:56.071Z,66.71
2023-01-07T08:26:01.272Z,66.64
2023-01-07T08:27:03.502Z,67.20
2023-01-07T08:28:05.951Z,66.96
2023-01-07T08:29:08.266Z,67.42
2023-01-07T08:30:11.772Z,67.74
2023-01-07T08:31:16.131Z,69.25
2023-01-07T08:32:21.033Z,66.73
2023-01-07T08:33:23.938Z,66.27
2023-01-07T08:34:26.818Z,66.12
2023-01-07T08:35:29.314Z,66.63
2023-01-07T08:36:31.453Z,66.20
2023-01-07T08:37:33.499Z,66.03
2023-01-07T08:38:35.915Z,65.60
2023-01-07T08:39:37.988Z,65.21
2023-01-07T08:40:40.405Z,65.21
2023-01-07T08:41:42.330Z,65.23
2023-01-07T08:42:44.329Z,65.02
2023-01-07T08:43:46.719Z,65.39
2023-01-07T08:44:49.523Z,65.39
2023-01-07T08:45:52.505Z,65.48
2023-01-07T08:46:55.516Z,66.17
2023-01-07T08:47:58.289Z,70.08
2023-01-07T08:49:00.762Z,67.98
2023-01-07T08:50:03.779Z,66.55
2023-01-07T08:51:06.841Z,66.15
2023-01-07T08:52:09.081Z,65.09
2023-01-07T08:53:11.158Z,64.71
2023-01-07T08:54:13.451Z,64.55
2023-01-07T08:55:15.662Z,65.04
2023-01-07T08:56:17.867Z,64.01
2023-01-07T08:57:20.051Z,64.17
2023-01-07T08:58:21.982Z,65.69
2023-01-07T08:59:24.033Z,67.43
2023-01-07T09:00:27.081Z,65.43
2023-01-07T09:01:29.458Z,67.87
2023-01-07T09:02:31.727Z,68.07
2023-01-07T09:03:34.675Z,65.76
2023-01-07T09:04:37.816Z,64.46
2023-01-07T09:05:40.076Z,63.90
2023-01-07T09:06:42.781Z,64.29
2023-01-07T09:07:44.833Z,64.05
2023-01-07T09:08:47.081Z,69.37
2023-01-07T09:09:50.077Z,68.68
2023-01-07T09:10:52.756Z,65.47
2023-01-07T09:11:55.121Z,64.63
2023-01-07T09:12:57.410Z,63.23
2023-01-07T09:13:59.514Z,63.77
2023-01-07T09:15:03.275Z,63.53
2023-01-07T09:16:06.989Z,63.53
2023-01-07T09:17:10.501Z,62.98
2023-01-07T09:18:12.416Z,63.15
2023-01-07T09:19:14.520Z,65.40
2023-01-07T09:20:17.335Z,64.28
2023-01-07T09:21:19.427Z,62.18
2023-01-07T09:22:21.585Z,63.52
2023-01-07T09:23:23.629Z,63.49
2023-01-07T09:24:25.761Z,62.61
2023-01-07T09:25:27.763Z,62.47
2023-01-07T09:26:30.703Z,62.23
2023-01-07T09:27:33.904Z,61.91
2023-01-07T09:28:36.328Z,62.61
2023-01-07T09:29:38.523Z,63.10
2023-01-07T09:30:41.640Z,63.18
2023-01-07T09:31:43.910Z,62.84
2023-01-07T09:32:46.994Z,62.60
2023-01-07T09:33:54.072Z,62.54
2023-01-07T09:34:56.268Z,63.13
2023-01-07T09:35:58.679Z,63.16
2023-01-07T09:37:01.393Z,62.73
2023-01-07T09:38:04.768Z,62.53
2023-01-07T09:39:08.213Z,64.44
2023-01-07T09:41:59.984Z,64.12
2023-01-07T09:43:24.771Z,64.62
2023-01-07T09:44:47.697Z,64.06
2023-01-07T09:45:53.435Z,64.17
2023-01-07T09:46:57.010Z,64.21
2023-01-07T09:48:02.816Z,64.36
2023-01-07T09:49:07.897Z,64.38
2023-01-07T09:50:20.081Z,66.02
2023-01-07T09:51:39.500Z,65.93
2023-01-07T09:52:47.301Z,65.01
2023-01-07T09:53:57.628Z,64.12
2023-01-07T09:55:25.083Z,66.59
2023-01-07T09:56:29.898Z,68.18
2023-01-07T09:57:33.099Z,64.07
2023-01-07T09:58:37.880Z,63.52
2023-01-07T09:59:39.554Z,63.24
2023-01-07T12:01:13.834Z,64.36
2023-01-07T12:02:25.993Z,64.27
2023-01-07T12:03:28.763Z,65.18
2023-01-07T12:04:33.311Z,63.43
2023-01-07T12:05:37.757Z,62.89
2023-01-07T12:06:43.965Z,62.63
2023-01-07T12:07:49.106Z,63.12
2023-01-07T12:08:58.087Z,61.92
2023-01-07T12:10:00.757Z,62.97
2023-01-07T12:11:09.884Z,63.77
2023-01-07T12:12:31.064Z,63.31
2023-01-07T12:13:33.790Z,64.64
2023-01-07T12:14:38.762Z,64.04
2023-01-07T12:17:18.604Z,63.34
2023-01-07T12:18:28.217Z,62.61
2023-01-07T12:19:40.073Z,61.93
2023-01-07T12:21:03.978Z,62.91
2023-01-07T12:22:15.484Z,61.43
2023-01-07T12:23:28.404Z,62.24
2023-01-07T12:24:34.412Z,64.29
2023-01-07T12:27:15.103Z,64.38
2023-01-07T12:28:35.687Z,61.55
2023-01-07T12:29:53.496Z,61.35
2023-01-07T12:31:22.569Z,63.26
2023-01-07T12:32:40.641Z,64.30
2023-01-07T12:33:58.680Z,62.47
2023-01-07T12:35:14.649Z,62.71
2023-01-07T12:36:30.595Z,62.66
2023-01-07T12:37:39.846Z,62.02
2023-01-07T12:38:45.680Z,62.13
2023-01-07T12:39:53.762Z,63.29
2023-01-07T12:40:59.344Z,64.04
2023-01-07T12:42:17.432Z,63.33
2023-01-07T12:43:38.585Z,63.56
2023-01-07T12:44:50.420Z,62.51
2023-01-07T12:45:56.215Z,63.04
2023-01-07T12:47:32.506Z,63.76
2023-01-07T12:48:18.609Z,62.86
2023-01-07T12:49:27.572Z,62.50
2023-01-07T12:50:42.590Z,62.68
2023-01-07T12:54:44.477Z,63.02
2023-01-07T12:55:59.603Z,64.95
2023-01-07T12:58:41.531Z,64.40
2023-01-07T12:59:50.457Z,64.33
2023-01-07T13:00:59.388Z,63.77
2023-01-07T13:02:36.344Z,64.07
2023-01-07T13:04:08.162Z,63.21
2023-01-07T13:05:30.689Z,62.98
2023-01-07T13:06:36.506Z,62.63
2023-01-07T13:08:16.084Z,61.46
2023-01-07T13:09:24.817Z,64.00
2023-01-07T13:10:45.222Z,63.86
2023-01-07T13:12:41.231Z,62.96
2023-01-07T13:13:33.530Z,62.17
2023-01-07T13:14:42.137Z,62.26
2023-01-07T13:15:44.206Z,63.46
2023-01-07T13:16:46.875Z,62.77
2023-01-07T13:17:50.827Z,63.15
2023-01-07T13:18:53.329Z,62.44
2023-01-07T13:19:56.219Z,62.07
2023-01-07T13:21:16.990Z,61.46
2023-01-07T13:22:28.795Z,61.86
2023-01-07T13:23:50.813Z,60.28
2023-01-07T13:25:07.380Z,60.85
2023-01-07T13:26:32.677Z,61.47
2023-01-07T13:27:41.824Z,61.55
2023-01-07T13:29:04.338Z,61.85
2023-01-07T13:30:26.145Z,62.41
2023-01-07T13:31:43.032Z,61.93
2023-01-07T13:32:48.918Z,62.29
2023-01-07T13:34:10.104Z,61.12
2023-01-07T13:35:31.246Z,60.28
2023-01-07T13:37:12.193Z,61.50
2023-01-07T13:38:50.222Z,61.94
2023-01-07T13:40:08.209Z,61.91
2023-01-07T13:41:43.320Z,63.20
2023-01-07T13:43:14.609Z,63.11
2023-01-07T13:44:20.311Z,63.01
2023-01-07T13:45:38.881Z,63.80
2023-01-07T13:46:43.947Z,63.33
2023-01-07T13:47:52.167Z,63.34
2023-01-07T13:48:54.935Z,63.88
2023-01-07T13:50:00.093Z,63.68
2023-01-07T13:51:05.708Z,63.68
2023-01-07T13:52:19.868Z,62.95
2023-01-07T13:53:29.129Z,63.71
2023-01-07T13:54:53.054Z,62.90
2023-01-07T13:55:58.860Z,63.65
2023-01-07T13:57:05.563Z,63.39
2023-01-07T13:58:45.804Z,63.60
2023-01-07T13:59:49.211Z,63.07
2023-01-07T14:01:14.848Z,64.70
2023-01-07T14:02:50.472Z,64.46
2023-01-07T14:03:54.293Z,62.19
2023-01-07T14:05:15.093Z,62.70
2023-01-07T14:06:25.901Z,63.61
2023-01-07T14:07:28.658Z,62.74
2023-01-07T14:08:32.150Z,62.48
2023-01-07T14:09:37.311Z,61.89
2023-01-07T14:10:39.600Z,63.13
2023-01-07T14:12:02.481Z,63.87
2023-01-07T14:13:17.786Z,63.39
2023-01-07T14:14:38.814Z,62.98
2023-01-07T14:15:45.801Z,63.24
2023-01-07T14:17:03.522Z,62.82
2023-01-07T14:18:30.907Z,62.85
2023-01-07T14:19:40.657Z,64.26
2023-01-07T14:20:49.391Z,63.96
2023-01-07T14:22:10.253Z,64.58
2023-01-07T14:23:38.544Z,63.57
2023-01-07T14:25:08.554Z,64.31
2023-01-07T14:26:33.265Z,63.53
2023-01-07T14:27:48.498Z,63.00
2023-01-07T14:28:57.044Z,63.17
2023-01-07T14:30:15.959Z,63.41
2023-01-07T14:31:25.427Z,64.38
2023-01-07T14:32:32.157Z,63.87
2023-01-07T14:33:41.375Z,63.88
2023-01-07T14:34:55.666Z,65.49
2023-01-07T14:36:09.621Z,65.11
2023-01-07T14:37:17.540Z,65.20
2023-01-07T14:38:36.037Z,64.09
2023-01-07T14:39:41.516Z,64.61
2023-01-07T14:40:47.614Z,64.41
2023-01-07T14:42:27.331Z,64.72
2023-01-07T14:43:46.016Z,64.28
2023-01-07T14:44:50.672Z,64.31
2023-01-07T14:45:54.381Z,63.95
2023-01-07T14:46:57.875Z,65.11
2023-01-07T14:48:00.154Z,65.54
2023-01-07T14:49:05.926Z,65.21
2023-01-07T14:50:29.405Z,64.69
2023-01-07T14:51:59.506Z,65.01
2023-01-07T14:53:17.629Z,64.72
2023-01-07T14:54:40.470Z,65.28
2023-01-07T14:56:07.791Z,64.49
2023-01-07T14:57:44.517Z,65.18
2023-01-07T14:59:24.160Z,66.08
2023-01-07T15:02:25.462Z,65.19
2023-01-07T15:03:49.028Z,65.38
2023-01-07T15:04:54.702Z,66.02
2023-01-07T15:06:18.598Z,66.51
2023-01-07T15:07:27.237Z,66.88
2023-01-07T15:08:51.825Z,66.44
2023-01-07T15:10:23.588Z,66.76
2023-01-07T15:11:44.962Z,67.36
2023-01-07T15:13:09.329Z,66.70
2023-01-07T15:14:46.250Z,66.62
2023-01-07T15:16:01.806Z,66.91
2023-01-07T15:17:04.800Z,68.02
2023-01-07T15:18:11.856Z,68.46
2023-01-07T15:19:15.241Z,67.50
2023-01-07T15:20:18.621Z,67.47
2023-01-07T15:21:27.917Z,67.70
2023-01-07T15:23:05.705Z,67.39
2023-01-07T15:24:11.425Z,68.16
2023-01-07T15:25:37.882Z,68.19
2023-01-07T15:27:12.701Z,68.18
2023-01-07T15:28:21.887Z,69.10
2023-01-07T15:29:30.357Z,68.93
2023-01-07T15:31:00.459Z,69.53
2023-01-07T15:32:09.118Z,69.29
2023-01-07T15:33:28.930Z,69.39
2023-01-07T15:34:33.882Z,69.42
2023-01-07T15:35:44.083Z,69.29
2023-01-07T15:36:52.397Z,69.85
2023-01-07T15:37:54.530Z,70.15
2023-01-07T15:39:00.291Z,70.39
2023-01-07T15:40:03.121Z,69.90
2023-01-07T15:41:05.199Z,70.63
2023-01-07T15:42:13.819Z,71.27
2023-01-07T15:43:24.770Z,71.30
2023-01-07T15:44:41.338Z,71.02
2023-01-07T15:45:44.600Z,71.89
2023-01-07T15:46:48.048Z,71.60
2023-01-07T15:47:51.169Z,71.89
2023-01-07T15:49:07.254Z,71.70
2023-01-07T15:50:33.308Z,71.77
2023-01-07T15:51:40.726Z,72.23
2023-01-07T15:52:49.303Z,72.25
2023-01-07T15:53:55.492Z,71.96
2023-01-07T15:55:01.375Z,71.81
2023-01-07T15:56:10.938Z,71.49
2023-01-07T15:57:23.276Z,71.34
2023-01-07T15:58:39.688Z,70.39
2023-01-07T15:59:49.078Z,70.38
2023-01-07T16:00:54.166Z,69.79
2023-01-07T16:02:00.349Z,69.58
2023-01-07T16:03:04.031Z,68.85
2023-01-07T16:04:07.593Z,68.89
2023-01-07T16:05:10.457Z,68.58
2023-01-07T16:06:34.956Z,69.15
2023-01-07T16:07:59.499Z,70.41
2023-01-07T16:09:05.393Z,69.89
2023-01-07T16:10:23.976Z,69.62
2023-01-07T16:11:29.038Z,70.18
2023-01-07T16:12:37.282Z,70.25
2023-01-07T16:13:39.560Z,70.30
2023-01-07T16:14:41.915Z,71.25
2023-01-07T16:15:45.435Z,71.73
2023-01-07T16:16:48.365Z,72.20
2023-01-07T16:17:55.019Z,72.19
2023-01-07T16:19:02.546Z,72.14
2023-01-07T16:20:10.782Z,72.31
2023-01-07T16:21:14.612Z,72.13
2023-01-07T16:22:20.641Z,72.16
2023-01-07T16:24:46.098Z,71.40
2023-01-07T16:25:51.802Z,70.56
2023-01-07T16:26:58.696Z,71.20
2023-01-07T16:28:02.132Z,71.25
2023-01-07T16:29:15.496Z,71.33
2023-01-07T16:30:18.914Z,71.58
2023-01-07T16:31:24.838Z,71.14
2023-01-07T16:32:27.571Z,70.93
2023-01-07T16:33:35.075Z,71.12
2023-01-07T16:34:40.845Z,71.34
2023-01-07T16:35:45.676Z,71.23
2023-01-07T16:36:50.040Z,71.49
2023-01-07T16:37:53.378Z,70.62
2023-01-07T16:38:59.089Z,70.46
2023-01-07T16:40:02.247Z,70.93